sensor_id;sensor_type;location;lat;lon;timestamp;temperature;humidity
40085;DHT22;25786;51.504;7.344;2023-05-31T00:01:02;13.50;79.00
40085;DHT22;25786;51.504;7.344;2023-05-31T00:03:27;13.50;79.10
40085;DHT22;25786;51.504;7.344;2023-05-31T00:05:53;13.60;78.80
40085;DHT22;25786;51.504;7.344;2023-05-31T00:08:18;13.60;78.30
40085;DHT22;25786;51.504;7.344;2023-05-31T00:10:43;13.60;78.90
40085;DHT22;25786;51.504;7.344;2023-05-31T00:13:09;13.60;78.70
40085;DHT22;25786;51.504;7.344;2023-05-31T00:15:35;13.40;79.00
40085;DHT22;25786;51.504;7.344;2023-05-31T00:18:00;13.30;79.20
40085;DHT22;25786;51.504;7.344;2023-05-31T00:20:26;13.30;79.50
40085;DHT22;25786;51.504;7.344;2023-05-31T00:22:51;13.20;79.70
40085;DHT22;25786;51.504;7.344;2023-05-31T00:25:17;13.20;79.80
40085;DHT22;25786;51.504;7.344;2023-05-31T00:27:42;13.20;80.00
40085;DHT22;25786;51.504;7.344;2023-05-31T00:30:08;13.30;79.70
40085;DHT22;25786;51.504;7.344;2023-05-31T00:32:33;13.30;79.70
40085;DHT22;25786;51.504;7.344;2023-05-31T00:34:59;13.30;80.10
40085;DHT22;25786;51.504;7.344;2023-05-31T00:37:24;13.30;79.90
40085;DHT22;25786;51.504;7.344;2023-05-31T00:39:49;13.20;80.00
40085;DHT22;25786;51.504;7.344;2023-05-31T00:42:15;13.20;80.00
40085;DHT22;25786;51.504;7.344;2023-05-31T00:44:41;13.20;79.90
40085;DHT22;25786;51.504;7.344;2023-05-31T00:47:06;13.20;80.00
40085;DHT22;25786;51.504;7.344;2023-05-31T00:49:32;13.10;80.10
40085;DHT22;25786;51.504;7.344;2023-05-31T00:51:58;13.00;80.20
40085;DHT22;25786;51.504;7.344;2023-05-31T00:54:24;13.10;80.50
40085;DHT22;25786;51.504;7.344;2023-05-31T00:56:49;13.00;80.20
40085;DHT22;25786;51.504;7.344;2023-05-31T00:59:15;13.10;80.30
40085;DHT22;25786;51.504;7.344;2023-05-31T01:01:40;13.10;80.40
40085;DHT22;25786;51.504;7.344;2023-05-31T01:04:07;13.10;80.20
40085;DHT22;25786;51.504;7.344;2023-05-31T01:06:32;13.10;80.30
40085;DHT22;25786;51.504;7.344;2023-05-31T01:09:03;13.00;80.70
40085;DHT22;25786;51.504;7.344;2023-05-31T01:14:27;13.00;80.80
40085;DHT22;25786;51.504;7.344;2023-05-31T01:16:54;13.00;80.90
40085;DHT22;25786;51.504;7.344;2023-05-31T01:19:29;13.00;81.10
40085;DHT22;25786;51.504;7.344;2023-05-31T01:22:02;13.00;80.90
40085;DHT22;25786;51.504;7.344;2023-05-31T01:27:14;13.10;80.20
40085;DHT22;25786;51.504;7.344;2023-05-31T01:29:41;13.00;80.50
40085;DHT22;25786;51.504;7.344;2023-05-31T01:32:07;12.90;80.80
40085;DHT22;25786;51.504;7.344;2023-05-31T01:34:33;12.90;81.00
40085;DHT22;25786;51.504;7.344;2023-05-31T01:36:59;12.80;81.00
40085;DHT22;25786;51.504;7.344;2023-05-31T01:39:24;12.80;81.40
40085;DHT22;25786;51.504;7.344;2023-05-31T01:41:50;12.80;81.10
40085;DHT22;25786;51.504;7.344;2023-05-31T01:44:16;12.80;81.20
40085;DHT22;25786;51.504;7.344;2023-05-31T01:46:44;12.90;80.90
40085;DHT22;25786;51.504;7.344;2023-05-31T01:49:10;12.90;80.80
40085;DHT22;25786;51.504;7.344;2023-05-31T01:51:36;12.80;81.10
40085;DHT22;25786;51.504;7.344;2023-05-31T01:54:02;12.70;81.20
40085;DHT22;25786;51.504;7.344;2023-05-31T01:56:27;12.60;81.50
40085;DHT22;25786;51.504;7.344;2023-05-31T01:58:55;12.60;81.50
40085;DHT22;25786;51.504;7.344;2023-05-31T02:01:22;12.60;81.70
40085;DHT22;25786;51.504;7.344;2023-05-31T02:03:49;12.80;81.10
40085;DHT22;25786;51.504;7.344;2023-05-31T02:06:14;12.70;81.40
40085;DHT22;25786;51.504;7.344;2023-05-31T02:08:40;12.70;81.40
40085;DHT22;25786;51.504;7.344;2023-05-31T02:11:08;12.60;81.50
40085;DHT22;25786;51.504;7.344;2023-05-31T02:13:33;12.50;82.00
40085;DHT22;25786;51.504;7.344;2023-05-31T02:15:59;12.50;82.00
40085;DHT22;25786;51.504;7.344;2023-05-31T02:18:25;12.50;81.90
40085;DHT22;25786;51.504;7.344;2023-05-31T02:20:54;12.50;82.10
40085;DHT22;25786;51.504;7.344;2023-05-31T02:23:20;12.50;81.90
40085;DHT22;25786;51.504;7.344;2023-05-31T02:25:46;12.40;82.10
40085;DHT22;25786;51.504;7.344;2023-05-31T02:28:11;12.40;82.10
40085;DHT22;25786;51.504;7.344;2023-05-31T02:30:37;12.30;82.30
40085;DHT22;25786;51.504;7.344;2023-05-31T02:33:03;12.30;82.30
40085;DHT22;25786;51.504;7.344;2023-05-31T02:35:30;12.30;82.50
40085;DHT22;25786;51.504;7.344;2023-05-31T02:37:55;12.30;82.70
40085;DHT22;25786;51.504;7.344;2023-05-31T02:40:21;12.30;82.20
40085;DHT22;25786;51.504;7.344;2023-05-31T02:42:46;12.30;82.20
40085;DHT22;25786;51.504;7.344;2023-05-31T02:45:12;12.20;82.40
40085;DHT22;25786;51.504;7.344;2023-05-31T02:47:38;12.30;82.40
40085;DHT22;25786;51.504;7.344;2023-05-31T02:50:04;12.30;82.30
40085;DHT22;25786;51.504;7.344;2023-05-31T02:52:30;12.30;82.60
40085;DHT22;25786;51.504;7.344;2023-05-31T02:54:55;12.30;82.40
40085;DHT22;25786;51.504;7.344;2023-05-31T02:57:21;12.20;82.50
40085;DHT22;25786;51.504;7.344;2023-05-31T02:59:48;12.20;82.60
40085;DHT22;25786;51.504;7.344;2023-05-31T03:02:14;12.20;82.70
40085;DHT22;25786;51.504;7.344;2023-05-31T03:04:39;12.20;83.00
40085;DHT22;25786;51.504;7.344;2023-05-31T03:07:07;12.10;83.00
40085;DHT22;25786;51.504;7.344;2023-05-31T03:09:32;12.10;83.10
40085;DHT22;25786;51.504;7.344;2023-05-31T03:11:58;12.10;83.20
40085;DHT22;25786;51.504;7.344;2023-05-31T03:14:23;12.10;83.00
40085;DHT22;25786;51.504;7.344;2023-05-31T03:16:48;12.10;82.80
40085;DHT22;25786;51.504;7.344;2023-05-31T03:19:21;12.10;82.40
40085;DHT22;25786;51.504;7.344;2023-05-31T03:21:47;12.10;82.50
40085;DHT22;25786;51.504;7.344;2023-05-31T03:24:12;12.10;82.20
40085;DHT22;25786;51.504;7.344;2023-05-31T03:26:38;12.00;82.30
40085;DHT22;25786;51.504;7.344;2023-05-31T03:29:03;12.00;82.60
40085;DHT22;25786;51.504;7.344;2023-05-31T03:31:29;12.00;82.80
40085;DHT22;25786;51.504;7.344;2023-05-31T03:33:54;11.80;83.30
40085;DHT22;25786;51.504;7.344;2023-05-31T03:36:20;11.80;83.50
40085;DHT22;25786;51.504;7.344;2023-05-31T03:38:45;11.80;83.90
40085;DHT22;25786;51.504;7.344;2023-05-31T03:41:11;11.80;83.90
40085;DHT22;25786;51.504;7.344;2023-05-31T03:43:36;11.90;83.60
40085;DHT22;25786;51.504;7.344;2023-05-31T03:46:02;11.90;83.70
40085;DHT22;25786;51.504;7.344;2023-05-31T03:48:27;11.90;83.70
40085;DHT22;25786;51.504;7.344;2023-05-31T03:50:53;11.90;83.60
40085;DHT22;25786;51.504;7.344;2023-05-31T03:53:19;11.90;83.40
40085;DHT22;25786;51.504;7.344;2023-05-31T03:55:46;12.00;83.20
40085;DHT22;25786;51.504;7.344;2023-05-31T03:58:12;12.00;83.50
40085;DHT22;25786;51.504;7.344;2023-05-31T04:00:38;12.00;83.10
40085;DHT22;25786;51.504;7.344;2023-05-31T04:03:03;12.00;83.40
40085;DHT22;25786;51.504;7.344;2023-05-31T04:05:29;12.00;83.70
40085;DHT22;25786;51.504;7.344;2023-05-31T04:07:54;12.00;83.70
40085;DHT22;25786;51.504;7.344;2023-05-31T04:10:20;12.00;83.50
40085;DHT22;25786;51.504;7.344;2023-05-31T04:12:45;12.00;83.70
40085;DHT22;25786;51.504;7.344;2023-05-31T04:15:11;12.10;83.50
40085;DHT22;25786;51.504;7.344;2023-05-31T04:17:36;12.10;83.50
40085;DHT22;25786;51.504;7.344;2023-05-31T04:20:02;12.10;83.50
40085;DHT22;25786;51.504;7.344;2023-05-31T04:22:33;12.10;83.50
40085;DHT22;25786;51.504;7.344;2023-05-31T04:24:58;12.20;83.30
40085;DHT22;25786;51.504;7.344;2023-05-31T04:27:24;12.20;83.20
40085;DHT22;25786;51.504;7.344;2023-05-31T04:29:51;12.20;83.40
40085;DHT22;25786;51.504;7.344;2023-05-31T04:32:16;12.30;83.30
40085;DHT22;25786;51.504;7.344;2023-05-31T04:34:42;12.30;83.20
40085;DHT22;25786;51.504;7.344;2023-05-31T04:37:08;12.30;83.00
40085;DHT22;25786;51.504;7.344;2023-05-31T04:39:34;12.40;82.90
40085;DHT22;25786;51.504;7.344;2023-05-31T04:41:59;12.50;83.00
40085;DHT22;25786;51.504;7.344;2023-05-31T04:44:25;12.60;83.20
40085;DHT22;25786;51.504;7.344;2023-05-31T04:46:51;12.70;82.20
40085;DHT22;25786;51.504;7.344;2023-05-31T04:49:17;12.60;82.60
40085;DHT22;25786;51.504;7.344;2023-05-31T04:51:42;12.70;82.70
40085;DHT22;25786;51.504;7.344;2023-05-31T04:54:07;12.80;82.60
40085;DHT22;25786;51.504;7.344;2023-05-31T04:56:33;12.80;82.70
40085;DHT22;25786;51.504;7.344;2023-05-31T04:58:59;12.90;82.20
40085;DHT22;25786;51.504;7.344;2023-05-31T05:01:25;13.00;81.70
40085;DHT22;25786;51.504;7.344;2023-05-31T05:03:54;13.00;81.80
40085;DHT22;25786;51.504;7.344;2023-05-31T05:06:23;13.10;81.90
40085;DHT22;25786;51.504;7.344;2023-05-31T05:08:52;13.20;81.90
40085;DHT22;25786;51.504;7.344;2023-05-31T05:11:29;13.30;81.50
40085;DHT22;25786;51.504;7.344;2023-05-31T05:13:57;13.40;81.00
40085;DHT22;25786;51.504;7.344;2023-05-31T05:16:28;13.50;80.10
40085;DHT22;25786;51.504;7.344;2023-05-31T05:18:53;13.60;80.20
40085;DHT22;25786;51.504;7.344;2023-05-31T05:21:19;13.60;80.20
40085;DHT22;25786;51.504;7.344;2023-05-31T05:23:44;13.60;80.40
40085;DHT22;25786;51.504;7.344;2023-05-31T05:26:10;13.90;79.50
40085;DHT22;25786;51.504;7.344;2023-05-31T05:28:36;13.80;80.00
40085;DHT22;25786;51.504;7.344;2023-05-31T05:31:02;13.90;79.90
40085;DHT22;25786;51.504;7.344;2023-05-31T05:33:29;13.90;79.90
40085;DHT22;25786;51.504;7.344;2023-05-31T05:36:10;14.00;80.00
40085;DHT22;25786;51.504;7.344;2023-05-31T05:38:36;14.10;78.80
40085;DHT22;25786;51.504;7.344;2023-05-31T05:41:01;14.10;79.10
40085;DHT22;25786;51.504;7.344;2023-05-31T05:43:35;14.20;78.20
40085;DHT22;25786;51.504;7.344;2023-05-31T05:46:00;14.40;78.00
40085;DHT22;25786;51.504;7.344;2023-05-31T05:48:26;14.40;78.30
40085;DHT22;25786;51.504;7.344;2023-05-31T05:50:51;14.40;78.20
40085;DHT22;25786;51.504;7.344;2023-05-31T05:53:17;14.50;78.70
40085;DHT22;25786;51.504;7.344;2023-05-31T05:55:49;14.60;79.30
40085;DHT22;25786;51.504;7.344;2023-05-31T05:58:20;14.60;79.00
40085;DHT22;25786;51.504;7.344;2023-05-31T06:00:48;14.50;79.00
40085;DHT22;25786;51.504;7.344;2023-05-31T06:03:16;14.60;78.10
40085;DHT22;25786;51.504;7.344;2023-05-31T06:05:42;14.60;77.00
40085;DHT22;25786;51.504;7.344;2023-05-31T06:08:10;14.50;78.10
40085;DHT22;25786;51.504;7.344;2023-05-31T06:10:36;14.50;79.20
40085;DHT22;25786;51.504;7.344;2023-05-31T06:13:04;14.50;79.20
40085;DHT22;25786;51.504;7.344;2023-05-31T06:15:40;14.60;78.60
40085;DHT22;25786;51.504;7.344;2023-05-31T06:18:10;14.60;78.90
40085;DHT22;25786;51.504;7.344;2023-05-31T06:20:36;14.60;79.30
40085;DHT22;25786;51.504;7.344;2023-05-31T06:23:01;14.60;79.70
40085;DHT22;25786;51.504;7.344;2023-05-31T06:25:34;14.60;77.80
40085;DHT22;25786;51.504;7.344;2023-05-31T06:28:08;14.70;79.10
40085;DHT22;25786;51.504;7.344;2023-05-31T06:30:42;14.80;77.40
40085;DHT22;25786;51.504;7.344;2023-05-31T06:39:17;15.10;77.50
40085;DHT22;25786;51.504;7.344;2023-05-31T06:41:43;15.10;76.60
40085;DHT22;25786;51.504;7.344;2023-05-31T06:44:11;15.20;76.60
40085;DHT22;25786;51.504;7.344;2023-05-31T06:46:40;15.30;76.80
40085;DHT22;25786;51.504;7.344;2023-05-31T06:49:14;15.30;77.00
40085;DHT22;25786;51.504;7.344;2023-05-31T06:51:59;15.50;76.50
40085;DHT22;25786;51.504;7.344;2023-05-31T06:54:28;15.50;76.20
40085;DHT22;25786;51.504;7.344;2023-05-31T06:56:57;15.60;77.10
40085;DHT22;25786;51.504;7.344;2023-05-31T06:59:22;15.60;76.40
40085;DHT22;25786;51.504;7.344;2023-05-31T07:01:48;15.60;76.00
40085;DHT22;25786;51.504;7.344;2023-05-31T07:04:22;15.70;75.60
40085;DHT22;25786;51.504;7.344;2023-05-31T07:06:50;15.70;75.80
40085;DHT22;25786;51.504;7.344;2023-05-31T07:09:16;15.80;75.20
40085;DHT22;25786;51.504;7.344;2023-05-31T07:11:43;15.80;75.00
40085;DHT22;25786;51.504;7.344;2023-05-31T07:14:08;15.80;74.80
40085;DHT22;25786;51.504;7.344;2023-05-31T07:16:34;15.90;74.70
40085;DHT22;25786;51.504;7.344;2023-05-31T07:19:00;16.00;74.40
40085;DHT22;25786;51.504;7.344;2023-05-31T07:21:25;16.00;75.40
40085;DHT22;25786;51.504;7.344;2023-05-31T07:27:46;16.30;74.00
40085;DHT22;25786;51.504;7.344;2023-05-31T07:29:53;16.30;72.90
40085;DHT22;25786;51.504;7.344;2023-05-31T07:32:19;16.30;73.40
40085;DHT22;25786;51.504;7.344;2023-05-31T07:34:44;16.40;72.80
40085;DHT22;25786;51.504;7.344;2023-05-31T07:37:10;16.40;71.90
40085;DHT22;25786;51.504;7.344;2023-05-31T07:39:35;16.40;72.80
40085;DHT22;25786;51.504;7.344;2023-05-31T07:42:01;16.50;73.10
40085;DHT22;25786;51.504;7.344;2023-05-31T07:44:27;16.60;72.40
40085;DHT22;25786;51.504;7.344;2023-05-31T07:46:52;16.70;71.90
40085;DHT22;25786;51.504;7.344;2023-05-31T07:49:18;16.80;71.60
40085;DHT22;25786;51.504;7.344;2023-05-31T07:51:43;16.80;71.10
40085;DHT22;25786;51.504;7.344;2023-05-31T07:54:09;17.00;72.10
40085;DHT22;25786;51.504;7.344;2023-05-31T07:56:34;17.10;72.40
40085;DHT22;25786;51.504;7.344;2023-05-31T07:59:00;17.10;71.40
40085;DHT22;25786;51.504;7.344;2023-05-31T08:01:26;17.10;71.90
40085;DHT22;25786;51.504;7.344;2023-05-31T08:03:53;17.20;71.60
40085;DHT22;25786;51.504;7.344;2023-05-31T08:06:19;17.30;70.80
40085;DHT22;25786;51.504;7.344;2023-05-31T08:08:44;17.50;69.10
40085;DHT22;25786;51.504;7.344;2023-05-31T08:11:10;17.60;69.80
40085;DHT22;25786;51.504;7.344;2023-05-31T08:13:36;17.70;69.40
40085;DHT22;25786;51.504;7.344;2023-05-31T08:16:01;17.80;68.10
40085;DHT22;25786;51.504;7.344;2023-05-31T08:18:27;17.80;66.40
40085;DHT22;25786;51.504;7.344;2023-05-31T08:20:52;17.70;68.00
40085;DHT22;25786;51.504;7.344;2023-05-31T08:23:18;17.90;68.20
40085;DHT22;25786;51.504;7.344;2023-05-31T08:25:44;17.90;66.80
40085;DHT22;25786;51.504;7.344;2023-05-31T08:28:09;18.00;66.80
40085;DHT22;25786;51.504;7.344;2023-05-31T08:30:37;18.00;67.50
40085;DHT22;25786;51.504;7.344;2023-05-31T08:33:05;18.00;66.00
40085;DHT22;25786;51.504;7.344;2023-05-31T08:35:31;18.10;66.20
40085;DHT22;25786;51.504;7.344;2023-05-31T08:37:57;18.30;64.60
40085;DHT22;25786;51.504;7.344;2023-05-31T08:40:22;18.30;64.90
40085;DHT22;25786;51.504;7.344;2023-05-31T08:42:55;18.30;61.70
40085;DHT22;25786;51.504;7.344;2023-05-31T08:45:20;18.50;60.90
40085;DHT22;25786;51.504;7.344;2023-05-31T08:47:51;18.40;63.30
40085;DHT22;25786;51.504;7.344;2023-05-31T08:50:17;18.50;66.30
40085;DHT22;25786;51.504;7.344;2023-05-31T08:52:43;18.60;63.80
40085;DHT22;25786;51.504;7.344;2023-05-31T08:55:10;18.60;62.80
40085;DHT22;25786;51.504;7.344;2023-05-31T08:57:36;18.80;62.50
40085;DHT22;25786;51.504;7.344;2023-05-31T09:00:02;18.80;64.80
40085;DHT22;25786;51.504;7.344;2023-05-31T09:02:33;18.80;64.30
40085;DHT22;25786;51.504;7.344;2023-05-31T09:04:59;18.90;64.90
40085;DHT22;25786;51.504;7.344;2023-05-31T09:07:24;19.10;63.70
40085;DHT22;25786;51.504;7.344;2023-05-31T09:09:50;19.10;60.40
40085;DHT22;25786;51.504;7.344;2023-05-31T09:12:15;19.20;60.10
40085;DHT22;25786;51.504;7.344;2023-05-31T09:14:41;19.30;61.90
40085;DHT22;25786;51.504;7.344;2023-05-31T09:17:07;19.20;62.50
40085;DHT22;25786;51.504;7.344;2023-05-31T09:19:32;19.20;62.00
40085;DHT22;25786;51.504;7.344;2023-05-31T09:21:58;19.30;63.00
40085;DHT22;25786;51.504;7.344;2023-05-31T09:24:23;19.20;61.40
40085;DHT22;25786;51.504;7.344;2023-05-31T09:26:49;19.30;64.00
40085;DHT22;25786;51.504;7.344;2023-05-31T09:29:15;19.60;60.80
40085;DHT22;25786;51.504;7.344;2023-05-31T09:31:43;19.70;59.70
40085;DHT22;25786;51.504;7.344;2023-05-31T09:34:27;19.70;60.00
40085;DHT22;25786;51.504;7.344;2023-05-31T09:37:00;19.60;60.00
40085;DHT22;25786;51.504;7.344;2023-05-31T09:39:27;19.60;59.40
40085;DHT22;25786;51.504;7.344;2023-05-31T09:41:53;19.60;58.00
40085;DHT22;25786;51.504;7.344;2023-05-31T09:44:18;19.80;57.70
40085;DHT22;25786;51.504;7.344;2023-05-31T09:46:44;19.80;58.50
40085;DHT22;25786;51.504;7.344;2023-05-31T09:49:10;19.80;56.70
40085;DHT22;25786;51.504;7.344;2023-05-31T09:51:36;19.80;59.30
40085;DHT22;25786;51.504;7.344;2023-05-31T09:54:13;20.00;57.90
40085;DHT22;25786;51.504;7.344;2023-05-31T09:56:39;20.10;55.80
40085;DHT22;25786;51.504;7.344;2023-05-31T09:59:05;20.20;55.50
40085;DHT22;25786;51.504;7.344;2023-05-31T10:01:32;20.10;56.40
40085;DHT22;25786;51.504;7.344;2023-05-31T10:03:58;20.10;55.90
40085;DHT22;25786;51.504;7.344;2023-05-31T10:06:24;20.20;54.30
40085;DHT22;25786;51.504;7.344;2023-05-31T10:08:50;20.40;51.90
40085;DHT22;25786;51.504;7.344;2023-05-31T10:11:16;20.30;54.50
40085;DHT22;25786;51.504;7.344;2023-05-31T10:13:42;20.40;50.30
40085;DHT22;25786;51.504;7.344;2023-05-31T10:16:10;20.50;51.90
40085;DHT22;25786;51.504;7.344;2023-05-31T10:18:36;20.50;50.70
40085;DHT22;25786;51.504;7.344;2023-05-31T10:21:09;20.50;52.60
40085;DHT22;25786;51.504;7.344;2023-05-31T10:23:37;20.70;46.10
40085;DHT22;25786;51.504;7.344;2023-05-31T10:26:16;20.90;50.60
40085;DHT22;25786;51.504;7.344;2023-05-31T10:28:51;21.00;52.30
40085;DHT22;25786;51.504;7.344;2023-05-31T10:31:19;21.00;50.70
40085;DHT22;25786;51.504;7.344;2023-05-31T10:33:47;21.00;48.20
40085;DHT22;25786;51.504;7.344;2023-05-31T10:36:14;20.90;49.30
40085;DHT22;25786;51.504;7.344;2023-05-31T10:38:48;21.00;48.50
40085;DHT22;25786;51.504;7.344;2023-05-31T10:41:15;21.20;47.80
40085;DHT22;25786;51.504;7.344;2023-05-31T10:44:02;21.40;48.70
40085;DHT22;25786;51.504;7.344;2023-05-31T10:46:30;21.50;46.40
40085;DHT22;25786;51.504;7.344;2023-05-31T10:48:58;21.30;45.60
40085;DHT22;25786;51.504;7.344;2023-05-31T10:51:40;21.40;48.70
40085;DHT22;25786;51.504;7.344;2023-05-31T10:54:06;21.30;47.50
40085;DHT22;25786;51.504;7.344;2023-05-31T10:56:31;21.40;49.10
40085;DHT22;25786;51.504;7.344;2023-05-31T10:58:57;21.40;47.40
40085;DHT22;25786;51.504;7.344;2023-05-31T11:01:23;21.50;48.70
40085;DHT22;25786;51.504;7.344;2023-05-31T11:03:53;21.60;46.70
40085;DHT22;25786;51.504;7.344;2023-05-31T11:06:23;21.40;46.30
40085;DHT22;25786;51.504;7.344;2023-05-31T11:13:58;21.50;48.40
40085;DHT22;25786;51.504;7.344;2023-05-31T11:16:24;21.50;47.60
40085;DHT22;25786;51.504;7.344;2023-05-31T11:19:01;21.60;48.40
40085;DHT22;25786;51.504;7.344;2023-05-31T11:22:27;21.50;47.50
40085;DHT22;25786;51.504;7.344;2023-05-31T11:26:59;21.50;48.60
40085;DHT22;25786;51.504;7.344;2023-05-31T11:32:09;21.70;47.60
40085;DHT22;25786;51.504;7.344;2023-05-31T11:34:35;21.70;48.00
40085;DHT22;25786;51.504;7.344;2023-05-31T11:37:13;21.80;48.00
40085;DHT22;25786;51.504;7.344;2023-05-31T11:39:42;21.90;46.90
40085;DHT22;25786;51.504;7.344;2023-05-31T11:42:08;21.90;47.40
40085;DHT22;25786;51.504;7.344;2023-05-31T11:44:34;21.80;43.90
40085;DHT22;25786;51.504;7.344;2023-05-31T11:47:03;21.70;47.20
40085;DHT22;25786;51.504;7.344;2023-05-31T11:49:29;21.80;46.70
40085;DHT22;25786;51.504;7.344;2023-05-31T11:51:56;22.00;46.80
40085;DHT22;25786;51.504;7.344;2023-05-31T11:54:27;22.10;47.20
40085;DHT22;25786;51.504;7.344;2023-05-31T11:57:04;22.10;49.30
40085;DHT22;25786;51.504;7.344;2023-05-31T11:59:32;22.10;48.30
40085;DHT22;25786;51.504;7.344;2023-05-31T12:01:59;22.00;48.80
40085;DHT22;25786;51.504;7.344;2023-05-31T12:04:31;22.00;46.10
40085;DHT22;25786;51.504;7.344;2023-05-31T12:06:57;22.10;48.10
40085;DHT22;25786;51.504;7.344;2023-05-31T12:09:26;22.00;51.50
40085;DHT22;25786;51.504;7.344;2023-05-31T12:11:52;22.10;49.40
40085;DHT22;25786;51.504;7.344;2023-05-31T12:14:18;22.10;48.90
40085;DHT22;25786;51.504;7.344;2023-05-31T12:16:43;22.20;46.10
40085;DHT22;25786;51.504;7.344;2023-05-31T12:19:12;22.20;44.60
40085;DHT22;25786;51.504;7.344;2023-05-31T12:21:38;22.30;44.80
40085;DHT22;25786;51.504;7.344;2023-05-31T12:24:10;22.30;46.00
40085;DHT22;25786;51.504;7.344;2023-05-31T12:26:37;22.40;48.30
40085;DHT22;25786;51.504;7.344;2023-05-31T12:29:02;22.40;47.90
40085;DHT22;25786;51.504;7.344;2023-05-31T12:31:28;22.30;46.30
40085;DHT22;25786;51.504;7.344;2023-05-31T12:33:58;22.20;46.30
40085;DHT22;25786;51.504;7.344;2023-05-31T12:36:27;22.20;47.40
40085;DHT22;25786;51.504;7.344;2023-05-31T12:38:53;22.30;49.60
40085;DHT22;25786;51.504;7.344;2023-05-31T12:41:20;22.50;46.20
40085;DHT22;25786;51.504;7.344;2023-05-31T12:43:46;22.40;48.10
40085;DHT22;25786;51.504;7.344;2023-05-31T12:46:15;22.50;47.20
40085;DHT22;25786;51.504;7.344;2023-05-31T12:48:50;22.50;46.00
40085;DHT22;25786;51.504;7.344;2023-05-31T12:51:22;22.50;46.30
40085;DHT22;25786;51.504;7.344;2023-05-31T12:53:47;22.60;46.40
40085;DHT22;25786;51.504;7.344;2023-05-31T12:56:13;22.50;46.40
40085;DHT22;25786;51.504;7.344;2023-05-31T12:58:38;22.60;46.50
40085;DHT22;25786;51.504;7.344;2023-05-31T13:01:04;22.60;46.90
40085;DHT22;25786;51.504;7.344;2023-05-31T13:03:30;22.60;46.90
40085;DHT22;25786;51.504;7.344;2023-05-31T13:05:56;22.60;48.20
40085;DHT22;25786;51.504;7.344;2023-05-31T13:08:21;22.70;47.40
40085;DHT22;25786;51.504;7.344;2023-05-31T13:10:47;22.60;46.90
40085;DHT22;25786;51.504;7.344;2023-05-31T13:13:12;22.70;47.50
40085;DHT22;25786;51.504;7.344;2023-05-31T13:15:38;22.50;48.80
40085;DHT22;25786;51.504;7.344;2023-05-31T13:18:03;22.50;47.20
40085;DHT22;25786;51.504;7.344;2023-05-31T13:20:29;22.60;46.70
40085;DHT22;25786;51.504;7.344;2023-05-31T13:22:54;22.60;48.30
40085;DHT22;25786;51.504;7.344;2023-05-31T13:25:20;22.70;48.20
40085;DHT22;25786;51.504;7.344;2023-05-31T13:27:45;22.80;49.40
40085;DHT22;25786;51.504;7.344;2023-05-31T13:30:11;22.80;48.00
40085;DHT22;25786;51.504;7.344;2023-05-31T13:32:37;22.80;48.60
40085;DHT22;25786;51.504;7.344;2023-05-31T13:35:05;22.80;47.50
40085;DHT22;25786;51.504;7.344;2023-05-31T13:37:33;22.90;45.80
40085;DHT22;25786;51.504;7.344;2023-05-31T13:39:59;22.80;47.20
40085;DHT22;25786;51.504;7.344;2023-05-31T13:42:24;23.00;46.60
40085;DHT22;25786;51.504;7.344;2023-05-31T13:44:50;22.90;47.10
40085;DHT22;25786;51.504;7.344;2023-05-31T13:47:15;23.00;48.50
40085;DHT22;25786;51.504;7.344;2023-05-31T13:49:41;23.10;50.40
40085;DHT22;25786;51.504;7.344;2023-05-31T13:52:07;23.10;46.70
40085;DHT22;25786;51.504;7.344;2023-05-31T13:54:38;23.10;46.60
40085;DHT22;25786;51.504;7.344;2023-05-31T13:57:03;23.00;49.50
40085;DHT22;25786;51.504;7.344;2023-05-31T13:59:29;23.10;48.70
40085;DHT22;25786;51.504;7.344;2023-05-31T14:02:09;23.10;49.80
40085;DHT22;25786;51.504;7.344;2023-05-31T14:04:35;23.10;48.10
40085;DHT22;25786;51.504;7.344;2023-05-31T14:07:01;23.30;48.00
40085;DHT22;25786;51.504;7.344;2023-05-31T14:09:28;23.50;44.70
40085;DHT22;25786;51.504;7.344;2023-05-31T14:11:54;23.40;45.80
40085;DHT22;25786;51.504;7.344;2023-05-31T14:14:20;23.30;44.90
40085;DHT22;25786;51.504;7.344;2023-05-31T14:16:46;23.20;45.10
40085;DHT22;25786;51.504;7.344;2023-05-31T14:19:11;23.20;46.00
40085;DHT22;25786;51.504;7.344;2023-05-31T14:21:37;23.30;46.00
40085;DHT22;25786;51.504;7.344;2023-05-31T14:24:03;23.30;45.80
40085;DHT22;25786;51.504;7.344;2023-05-31T14:26:29;23.40;47.20
40085;DHT22;25786;51.504;7.344;2023-05-31T14:28:54;23.40;45.40
40085;DHT22;25786;51.504;7.344;2023-05-31T14:31:20;23.60;44.40
40085;DHT22;25786;51.504;7.344;2023-05-31T14:33:45;23.60;46.10
40085;DHT22;25786;51.504;7.344;2023-05-31T14:36:11;23.70;46.30
40085;DHT22;25786;51.504;7.344;2023-05-31T14:38:36;23.70;44.90
40085;DHT22;25786;51.504;7.344;2023-05-31T14:41:02;23.60;46.00
40085;DHT22;25786;51.504;7.344;2023-05-31T14:43:27;23.70;45.50
40085;DHT22;25786;51.504;7.344;2023-05-31T14:45:53;23.50;46.40
40085;DHT22;25786;51.504;7.344;2023-05-31T14:48:18;23.50;45.20
40085;DHT22;25786;51.504;7.344;2023-05-31T14:50:44;23.50;45.50
40085;DHT22;25786;51.504;7.344;2023-05-31T14:53:09;23.40;46.60
40085;DHT22;25786;51.504;7.344;2023-05-31T14:55:38;23.50;44.60
40085;DHT22;25786;51.504;7.344;2023-05-31T14:58:04;23.50;44.80
40085;DHT22;25786;51.504;7.344;2023-05-31T15:00:29;23.30;45.60
40085;DHT22;25786;51.504;7.344;2023-05-31T15:02:55;23.30;45.40
40085;DHT22;25786;51.504;7.344;2023-05-31T15:05:20;23.20;46.80
40085;DHT22;25786;51.504;7.344;2023-05-31T15:07:46;23.20;47.10
40085;DHT22;25786;51.504;7.344;2023-05-31T15:10:11;23.20;48.40
40085;DHT22;25786;51.504;7.344;2023-05-31T15:12:37;23.30;49.30
40085;DHT22;25786;51.504;7.344;2023-05-31T15:15:02;23.30;46.40
40085;DHT22;25786;51.504;7.344;2023-05-31T15:17:28;23.20;47.50
40085;DHT22;25786;51.504;7.344;2023-05-31T15:19:54;23.30;47.10
40085;DHT22;25786;51.504;7.344;2023-05-31T15:22:19;23.30;47.80
40085;DHT22;25786;51.504;7.344;2023-05-31T15:24:47;23.10;47.30
40085;DHT22;25786;51.504;7.344;2023-05-31T15:27:13;23.30;45.80
40085;DHT22;25786;51.504;7.344;2023-05-31T15:29:39;23.30;46.70
40085;DHT22;25786;51.504;7.344;2023-05-31T15:32:04;23.30;47.30
40085;DHT22;25786;51.504;7.344;2023-05-31T15:34:32;23.30;46.00
40085;DHT22;25786;51.504;7.344;2023-05-31T15:36:57;23.30;47.80
40085;DHT22;25786;51.504;7.344;2023-05-31T15:39:23;23.30;48.20
40085;DHT22;25786;51.504;7.344;2023-05-31T15:41:48;23.20;48.20
40085;DHT22;25786;51.504;7.344;2023-05-31T15:44:14;23.10;47.90
40085;DHT22;25786;51.504;7.344;2023-05-31T15:46:39;23.10;48.20
40085;DHT22;25786;51.504;7.344;2023-05-31T15:49:08;23.10;48.60
40085;DHT22;25786;51.504;7.344;2023-05-31T15:51:33;23.20;47.80
40085;DHT22;25786;51.504;7.344;2023-05-31T15:53:59;23.20;47.30